Wappingers Falls, NY (12590)

5:35 AM EDT on April 18, 2015 (GMT -0400)
Vitek Backyard | | Change Station
CLOSE
Current Station
Personal Weather Station
Location: Hopewell Junction, NY
Elevation: 266 ft
Nearby Weather Stations
Active Advisory: Fire Weather Warning

Elev 266 ft 41.59 °N, 73.83 °W | Updated 9 minutes ago

Clear
Clear
41.7 °F
Feels Like 42 °F
N
0.0
Wind Variable Wind from SW

Today
High -- | Low -- °F
--% Chance of Precip.
Yesterday
High -- | Low -- °F
Precip. -- in
6:11 AM 7:39 PM
Waning Crescent, 0% visible
Pressure 29.95 in
Visibility 10.0 miles
Clouds Clear
Windchill 42 °F
Dew Point 37 °F
Humidity 84%
Rainfall 0.00 in
Snow Depth Not available.
UV 0 out of 12
Pollen 6.10 out of 12
Air Quality Not available.
Flu Activity Widespread
METAR KPOU 180853Z AUTO 00000KT 10SM CLR 06/04 A2995 RMK AO2 SLP140 T00610044 56003

More Conditions Fewer Conditions

Pressure 29.95 in
Visibility 10.0 miles
Clouds Clear
Windchill 42 °F
Dew Point 37 °F
Humidity 84%
Rainfall 0.00 in
Snow Depth Not available.
UV 0 out of 12
Pollen 6.10 out of 12
Air Quality Not available.
Flu Activity Widespread
METAR KPOU 180853Z AUTO 00000KT 10SM CLR 06/04 A2995 RMK AO2 SLP140 T00610044 56003

More Conditions Fewer Conditions

10-Day Weather Forecast

Almanac

Astronomy

Apr. 18, 2015 Rise Set
Actual Time
Civil Twilight
Nautical Twilight
Astronomical Twilight
Moon
Length of Visible Light
Length of Day
Tomorrow will be .
, % of the Moon is Illuminated

Today's Extremes

State Highs State Lows

Community

WunderPhotos

Upload Photos

1,814,350 photos uploaded!

WunderBlogs® & News

Nearby

Air Quality

  Air Quality AQ Index Pollutant
Not available.

Snow Depth

Station Depth Elevation

Earthquake Activity

City Distance Mag. Time & Date
Minimum magnitude displayed is 2.5.

Coastal Water Temperatures

Place Temperature

Stations

Nearby Weather Stations

Station Location Temp. Windchill Dew Point Humidity Wind Precip. Elev Updated Type
                   
Fire Weather Warning
Statement as of 4:10 AM EDT on April 18, 2015

... Red flag warning in effect from noon today to 8 PM EDT this
evening for all of eastern New York... Berkshire County of western
Massachusetts and Litchfield County of northwest Connecticut...

* winds... west to northwest 15 to 25 mph with gusts up to 35 mph.

* Timing... 12 PM to 8 PM Saturday.

* Relative humidity... minimum values from the mid to upper 20s.

* Temperatures... around 70 in valley locations to mainly 60s
elsewhere.

* Impacts... fires may spread rapidly and uncontrollably.

Precautionary/preparedness actions...

A red flag warning means that dangerous fire weather conditions
are expected due to the combination of gusty winds... low relative
humidities... and dry fuels. Any fires that develop may quickly
get out of control and become difficult to contain.